createdAt,value
2023-03-02T00:05:14.853Z,4.8
2023-03-02T00:11:07.193Z,4.7
2023-03-02T00:17:00.398Z,4.8
2023-03-02T00:22:52.019Z,4.8
2023-03-02T00:28:44.913Z,4.7
2023-03-02T00:34:37.712Z,4.7
2023-03-02T00:40:30.302Z,4.7
2023-03-02T00:46:23.201Z,4.7
2023-03-02T00:52:00.557Z,4.7
2023-03-02T00:57:54.170Z,4.7
2023-03-02T01:03:47.874Z,4.7
2023-03-02T01:09:41.343Z,4.6
2023-03-02T01:15:34.215Z,4.6
2023-03-02T01:21:27.799Z,4.6
2023-03-02T01:27:05.606Z,4.6
2023-03-02T01:32:43.560Z,4.6
2023-03-02T01:38:37.119Z,4.6
2023-03-02T01:44:29.178Z,4.5
2023-03-02T01:50:06.856Z,4.5
2023-03-02T01:55:44.741Z,4.5
2023-03-02T02:01:38.548Z,4.4
2023-03-02T02:07:32.168Z,4.4
2023-03-02T02:13:25.126Z,4.4
2023-03-02T02:19:17.773Z,4.4
2023-03-02T02:24:55.508Z,4.4
2023-03-02T02:30:49.082Z,4.4
2023-03-02T02:36:42.597Z,4.4
2023-03-02T02:42:35.957Z,4.4
2023-03-02T02:47:57.601Z,4.4
2023-03-02T02:53:49.448Z,4.3
2023-03-02T02:59:27.690Z,4.3
2023-03-02T03:05:04.720Z,4.3
2023-03-02T03:10:42.082Z,4.3
2023-03-02T03:16:19.960Z,4.3
2023-03-02T03:22:12.896Z,4.3
2023-03-02T03:28:05.416Z,4.2
2023-03-02T03:33:59.265Z,4.2
2023-03-02T03:39:52.408Z,4.2
2023-03-02T03:45:46.728Z,4.2
2023-03-02T03:51:39.323Z,4.2
2023-03-02T03:57:34.009Z,4.2
2023-03-02T04:03:12.435Z,4.2
2023-03-02T04:08:50.068Z,4.2
2023-03-02T04:14:26.880Z,4.2
2023-03-02T04:19:48.713Z,4.2
2023-03-02T04:25:26.276Z,4.1
2023-03-02T04:31:04.532Z,4.1
2023-03-02T04:36:57.397Z,4.1
2023-03-02T04:42:49.897Z,4
2023-03-02T04:48:45.997Z,4
2023-03-02T04:54:38.134Z,4
2023-03-02T05:00:33.260Z,3.9
2023-03-02T05:06:26.133Z,3.9
2023-03-02T05:12:18.141Z,3.9
2023-03-02T05:18:11.325Z,3.9
2023-03-02T05:24:03.976Z,3.9
2023-03-02T05:29:56.469Z,3.9
2023-03-02T05:35:50.223Z,3.9
2023-03-02T05:41:43.433Z,4
2023-03-02T05:47:37.228Z,4.1
2023-03-02T05:53:30.418Z,4.2
2023-03-02T05:59:08.375Z,4.3
2023-03-02T06:04:45.579Z,4.5
2023-03-02T06:10:22.516Z,4.6
2023-03-02T06:16:00.060Z,4.9
2023-03-02T06:21:37.034Z,5.1
2023-03-02T06:27:15.359Z,5.4
2023-03-02T06:33:07.253Z,5.6
2023-03-02T06:38:44.908Z,5.9
2023-03-02T06:44:22.852Z,6.1
2023-03-02T06:50:00.444Z,6.2
2023-03-02T06:55:37.889Z,6.3
2023-03-02T07:01:16.479Z,6.4
2023-03-02T07:06:55.227Z,6.7
2023-03-02T07:12:33.212Z,6.9
2023-03-02T07:18:13.569Z,7.3
2023-03-02T07:23:51.212Z,7.9
2023-03-02T07:29:27.559Z,8.4
2023-03-02T07:35:05.779Z,8.9
2023-03-02T07:40:58.757Z,9.7
2023-03-02T07:46:52.154Z,10.3
2023-03-02T07:52:45.169Z,10.9
2023-03-02T07:58:22.303Z,11.3
2023-03-02T08:04:15.079Z,11.7
2023-03-02T08:10:08.403Z,12.1
2023-03-02T08:16:01.161Z,12.6
2023-03-02T08:21:53.169Z,12.9
2023-03-02T08:27:46.254Z,13.3
2023-03-02T08:33:24.153Z,13.6
2023-03-02T08:39:17.550Z,13.9
2023-03-02T08:45:11.688Z,14.3
2023-03-02T08:51:04.789Z,14.9
2023-03-02T08:56:58.003Z,15.9
2023-03-02T09:02:51.540Z,16.8
2023-03-02T09:08:45.123Z,17.1
2023-03-02T09:14:37.598Z,17.4
2023-03-02T09:20:30.546Z,17.8
2023-03-02T09:26:22.931Z,18
2023-03-02T09:32:15.443Z,18
2023-03-02T09:38:09.606Z,18.6
2023-03-02T09:44:12.664Z,20.8
2023-03-02T09:50:10.673Z,23.5
2023-03-02T09:56:05.537Z,24.8
2023-03-02T10:02:07.322Z,24.8
2023-03-02T10:07:51.058Z,24.1
2023-03-02T10:13:46.546Z,23.4
2023-03-02T10:19:40.567Z,22.7
2023-03-02T10:25:40.662Z,21.9
2023-03-02T10:37:11.880Z,20.4
2023-03-02T10:43:04.079Z,19.9
2023-03-02T10:48:57.756Z,19.3
2023-03-02T10:55:06.638Z,19
2023-03-02T11:00:59.371Z,18.9
2023-03-02T11:06:54.456Z,19.1
2023-03-02T11:12:47.575Z,19.8
2023-03-02T11:18:26.272Z,20.8
2023-03-02T11:24:18.613Z,21.4
2023-03-02T11:29:56.686Z,22
2023-03-02T11:36:01.520Z,22.4
2023-03-02T11:41:59.557Z,22.7
2023-03-02T11:47:57.376Z,22.4
2023-03-02T11:54:01.802Z,22.2
2023-03-02T11:59:57.145Z,21.5
2023-03-02T12:05:20.558Z,20.9
2023-03-02T12:11:13.743Z,20.4
2023-03-02T12:17:08.812Z,19.7
2023-03-02T12:23:01.437Z,19
2023-03-02T12:28:54.180Z,18.4
2023-03-02T12:34:47.856Z,18.2
2023-03-02T12:40:40.973Z,18.1
2023-03-02T12:46:35.437Z,18.8
2023-03-02T12:52:32.603Z,20.3
2023-03-02T12:58:25.595Z,21.1
2023-03-02T13:04:19.050Z,21.1
2023-03-02T13:10:16.383Z,20.8
2023-03-02T13:16:08.705Z,20.5
2023-03-02T13:22:01.859Z,20.7
2023-03-02T13:27:54.721Z,20.8
2023-03-02T13:33:49.027Z,20.6
2023-03-02T13:39:42.140Z,19.9
2023-03-02T13:45:34.527Z,19.5
2023-03-02T13:51:44.152Z,19
2023-03-02T13:57:36.317Z,18.8
2023-03-02T14:03:30.454Z,18.9
2023-03-02T14:09:24.532Z,19.8
2023-03-02T14:15:02.653Z,20.6
2023-03-02T14:20:55.144Z,20.5
2023-03-02T14:26:49.858Z,20.1
2023-03-02T14:32:48.375Z,19.4
2023-03-02T14:38:40.917Z,18.8
2023-03-02T14:44:45.064Z,18.1
2023-03-02T14:50:37.621Z,17.4
2023-03-02T14:56:30.120Z,16.6
2023-03-02T15:02:40.748Z,15.8
2023-03-02T15:08:51.993Z,15.1
2023-03-02T15:14:28.671Z,14.5
2023-03-02T15:20:21.343Z,13.9
2023-03-02T15:26:18.235Z,13.3
2023-03-02T15:32:11.452Z,12.8
2023-03-02T15:38:04.253Z,12.3
2023-03-02T15:43:58.557Z,11.8
2023-03-02T15:49:51.668Z,11.3
2023-03-02T15:55:45.519Z,10.8
2023-03-02T16:01:34.039Z,10.4
2023-03-02T16:07:27.889Z,9.9
2023-03-02T16:13:21.542Z,9.4
2023-03-02T16:19:13.806Z,9.1
2023-03-02T16:25:07.601Z,8.8
2023-03-02T16:31:00.958Z,8.4
2023-03-02T16:36:54.595Z,8
2023-03-02T16:42:47.925Z,7.8
2023-03-02T16:48:26.506Z,7.4
2023-03-02T16:54:19.789Z,7.2
2023-03-02T17:00:13.494Z,6.9
2023-03-02T17:06:07.329Z,6.8
2023-03-02T17:12:05.139Z,6.5
2023-03-02T17:17:58.295Z,6.3
2023-03-02T17:23:51.200Z,6.1
2023-03-02T17:29:59.279Z,5.9
2023-03-02T17:35:51.941Z,5.8
2023-03-02T17:41:44.567Z,5.6
2023-03-02T17:47:41.524Z,5.6
2023-03-02T17:53:34.938Z,5.4
2023-03-02T17:59:35.362Z,5.3
2023-03-02T18:05:28.582Z,5.1
2023-03-02T18:11:25.180Z,5
2023-03-02T18:17:17.873Z,4.9
2023-03-02T18:22:55.600Z,4.8
2023-03-02T18:28:49.923Z,4.6
2023-03-02T18:34:43.654Z,4.5
2023-03-02T18:40:20.870Z,4.4
2023-03-02T18:46:13.582Z,4.4
2023-03-02T18:52:06.606Z,4.3
2023-03-02T18:57:59.582Z,4.3
2023-03-02T19:03:53.323Z,4.3
2023-03-02T19:09:45.261Z,4.1
2023-03-02T19:15:25.786Z,4.1
2023-03-02T19:21:20.734Z,4
2023-03-02T19:27:13.863Z,3.9
2023-03-02T19:33:07.562Z,3.8
2023-03-02T19:38:44.854Z,3.7
2023-03-02T19:44:37.818Z,3.6
2023-03-02T19:50:32.914Z,3.5
2023-03-02T19:56:26.519Z,3.4
2023-03-02T20:02:21.814Z,3.4
2023-03-02T20:07:59.373Z,3.3
2023-03-02T20:13:53.045Z,3.3
2023-03-02T20:19:56.901Z,3.3
2023-03-02T20:25:49.275Z,3.3
2023-03-02T20:31:42.867Z,3.3
2023-03-02T20:37:37.089Z,3.3
2023-03-02T20:43:33.381Z,3.3
2023-03-02T20:49:26.865Z,3.3
2023-03-02T20:55:20.028Z,3.4
2023-03-02T21:00:57.728Z,3.4
2023-03-02T21:06:51.122Z,3.4
2023-03-02T21:12:46.870Z,3.4
2023-03-02T21:18:42.691Z,3.4
2023-03-02T21:24:32.801Z,3.4
2023-03-02T21:30:28.992Z,3.4
2023-03-02T21:36:23.677Z,3.4
2023-03-02T21:42:17.854Z,3.4
2023-03-02T21:48:11.445Z,3.4
2023-03-02T21:53:51.257Z,3.4
2023-03-02T21:59:44.885Z,3.4
2023-03-02T22:05:37.593Z,3.3
2023-03-02T22:11:30.605Z,3.3
2023-03-02T22:17:24.858Z,3.1
2023-03-02T22:23:18.596Z,3.1
2023-03-02T22:29:11.162Z,3.1
2023-03-02T22:35:03.940Z,3.1
2023-03-02T22:40:57.530Z,3
2023-03-02T22:46:51.129Z,2.9
2023-03-02T22:52:44.844Z,2.9
2023-03-02T22:58:38.693Z,2.8
2023-03-02T23:04:32.410Z,2.7
2023-03-02T23:10:25.856Z,2.7
2023-03-02T23:16:20.016Z,2.7
2023-03-02T23:22:12.649Z,2.7
2023-03-02T23:28:05.169Z,2.7
2023-03-02T23:33:58.441Z,2.8
2023-03-02T23:39:50.981Z,2.8
2023-03-02T23:45:43.354Z,2.8
2023-03-02T23:51:35.926Z,2.9
2023-03-02T23:57:29.841Z,2.9
